sensor_id;sensor_type;location;lat;lon;timestamp;temperature;humidity
54796;DHT22;40693;43.884;20.340;2023-08-30T00:00:44;512.90;2380.80
54796;DHT22;40693;43.884;20.340;2023-08-30T00:03:11;512.90;2380.80
54796;DHT22;40693;43.884;20.340;2023-08-30T00:05:41;512.80;2380.80
54796;DHT22;40693;43.884;20.340;2023-08-30T00:08:07;512.80;2380.80
54796;DHT22;40693;43.884;20.340;2023-08-30T00:10:33;512.80;2380.80
54796;DHT22;40693;43.884;20.340;2023-08-30T00:12:59;512.80;2380.80
54796;DHT22;40693;43.884;20.340;2023-08-30T00:15:25;512.70;2380.80
54796;DHT22;40693;43.884;20.340;2023-08-30T00:17:50;512.70;2380.80
54796;DHT22;40693;43.884;20.340;2023-08-30T00:20:20;512.60;2380.80
54796;DHT22;40693;43.884;20.340;2023-08-30T00:22:45;512.60;2380.80
54796;DHT22;40693;43.884;20.340;2023-08-30T00:25:11;512.10;2380.80
54796;DHT22;40693;43.884;20.340;2023-08-30T00:27:37;512.50;2380.80
54796;DHT22;40693;43.884;20.340;2023-08-30T00:30:03;512.30;2380.80
54796;DHT22;40693;43.884;20.340;2023-08-30T00:32:30;512.30;2380.80
54796;DHT22;40693;43.884;20.340;2023-08-30T00:34:55;512.30;2380.80
54796;DHT22;40693;43.884;20.340;2023-08-30T00:37:21;512.30;2380.80
54796;DHT22;40693;43.884;20.340;2023-08-30T00:39:47;512.20;2380.80
54796;DHT22;40693;43.884;20.340;2023-08-30T00:42:12;512.20;2380.80
54796;DHT22;40693;43.884;20.340;2023-08-30T00:44:38;512.10;2380.80
54796;DHT22;40693;43.884;20.340;2023-08-30T00:47:04;512.20;2380.80
54796;DHT22;40693;43.884;20.340;2023-08-30T00:49:30;512.20;2380.80
54796;DHT22;40693;43.884;20.340;2023-08-30T00:51:58;512.20;2380.80
54796;DHT22;40693;43.884;20.340;2023-08-30T00:54:24;512.10;2380.80
54796;DHT22;40693;43.884;20.340;2023-08-30T00:56:50;512.10;2380.80
54796;DHT22;40693;43.884;20.340;2023-08-30T00:59:17;512.20;2380.80
54796;DHT22;40693;43.884;20.340;2023-08-30T01:01:43;512.20;2380.80
54796;DHT22;40693;43.884;20.340;2023-08-30T01:04:09;512.20;2380.80
54796;DHT22;40693;43.884;20.340;2023-08-30T01:06:35;512.20;2380.80
54796;DHT22;40693;43.884;20.340;2023-08-30T01:09:02;512.10;2380.80
54796;DHT22;40693;43.884;20.340;2023-08-30T01:14:32;512.10;2380.80
54796;DHT22;40693;43.884;20.340;2023-08-30T01:17:01;512.10;2380.80
54796;DHT22;40693;43.884;20.340;2023-08-30T01:24:49;487.30;2380.80
54796;DHT22;40693;43.884;20.340;2023-08-30T01:27:20;512.00;2380.80
54796;DHT22;40693;43.884;20.340;2023-08-30T01:29:47;487.30;2380.80
54796;DHT22;40693;43.884;20.340;2023-08-30T01:32:14;487.30;2380.80
54796;DHT22;40693;43.884;20.340;2023-08-30T01:34:41;487.30;2380.80
54796;DHT22;40693;43.884;20.340;2023-08-30T01:37:08;487.20;2380.80
54796;DHT22;40693;43.884;20.340;2023-08-30T01:39:38;487.20;2380.80
54796;DHT22;40693;43.884;20.340;2023-08-30T01:42:07;487.20;2380.80
54796;DHT22;40693;43.884;20.340;2023-08-30T01:44:33;487.20;2380.80
54796;DHT22;40693;43.884;20.340;2023-08-30T01:47:00;487.20;2380.80
54796;DHT22;40693;43.884;20.340;2023-08-30T01:49:28;487.20;2380.80
54796;DHT22;40693;43.884;20.340;2023-08-30T01:51:57;487.20;2380.80
54796;DHT22;40693;43.884;20.340;2023-08-30T01:54:24;487.20;2380.80
54796;DHT22;40693;43.884;20.340;2023-08-30T01:56:51;487.10;2380.80
54796;DHT22;40693;43.884;20.340;2023-08-30T01:59:17;487.00;2380.80
54796;DHT22;40693;43.884;20.340;2023-08-30T02:01:43;486.90;2380.80
54796;DHT22;40693;43.884;20.340;2023-08-30T02:04:08;486.80;2380.80
54796;DHT22;40693;43.884;20.340;2023-08-30T02:06:42;486.80;2380.80
54796;DHT22;40693;43.884;20.340;2023-08-30T02:09:21;486.70;2380.80
54796;DHT22;40693;43.884;20.340;2023-08-30T02:11:51;486.70;2380.80
54796;DHT22;40693;43.884;20.340;2023-08-30T02:14:18;486.70;2380.80
54796;DHT22;40693;43.884;20.340;2023-08-30T02:16:46;486.70;2380.80
54796;DHT22;40693;43.884;20.340;2023-08-30T02:19:13;486.80;2380.80
54796;DHT22;40693;43.884;20.340;2023-08-30T02:21:46;486.70;2380.80
54796;DHT22;40693;43.884;20.340;2023-08-30T02:24:12;486.80;2380.80
54796;DHT22;40693;43.884;20.340;2023-08-30T02:26:37;486.80;2380.80
54796;DHT22;40693;43.884;20.340;2023-08-30T02:29:03;486.80;2380.80
54796;DHT22;40693;43.884;20.340;2023-08-30T02:31:29;486.90;2380.80
54796;DHT22;40693;43.884;20.340;2023-08-30T02:33:55;486.90;2380.80
54796;DHT22;40693;43.884;20.340;2023-08-30T02:36:20;486.90;2380.80
54796;DHT22;40693;43.884;20.340;2023-08-30T02:38:46;486.90;2380.80
54796;DHT22;40693;43.884;20.340;2023-08-30T02:41:12;486.90;2380.80
54796;DHT22;40693;43.884;20.340;2023-08-30T02:43:38;486.90;2380.80
54796;DHT22;40693;43.884;20.340;2023-08-30T02:46:04;486.90;2380.80
54796;DHT22;40693;43.884;20.340;2023-08-30T02:48:33;486.90;2380.80
54796;DHT22;40693;43.884;20.340;2023-08-30T02:50:59;486.90;2380.80
54796;DHT22;40693;43.884;20.340;2023-08-30T02:53:25;486.90;2380.80
54796;DHT22;40693;43.884;20.340;2023-08-30T02:55:51;487.00;2380.80
54796;DHT22;40693;43.884;20.340;2023-08-30T02:58:16;487.00;2380.80
54796;DHT22;40693;43.884;20.340;2023-08-30T03:00:43;487.00;2380.80
54796;DHT22;40693;43.884;20.340;2023-08-30T03:03:09;487.00;2380.80
54796;DHT22;40693;43.884;20.340;2023-08-30T03:05:35;487.00;2380.80
54796;DHT22;40693;43.884;20.340;2023-08-30T03:08:01;487.00;2380.80
54796;DHT22;40693;43.884;20.340;2023-08-30T03:10:27;487.00;2380.80
54796;DHT22;40693;43.884;20.340;2023-08-30T03:12:52;487.00;2380.80
54796;DHT22;40693;43.884;20.340;2023-08-30T03:15:18;486.90;2380.80
54796;DHT22;40693;43.884;20.340;2023-08-30T03:17:44;486.90;2380.80
54796;DHT22;40693;43.884;20.340;2023-08-30T03:20:10;486.80;2380.80
54796;DHT22;40693;43.884;20.340;2023-08-30T03:22:36;486.80;2380.80
54796;DHT22;40693;43.884;20.340;2023-08-30T03:25:01;486.70;2380.80
54796;DHT22;40693;43.884;20.340;2023-08-30T03:27:29;486.70;2380.80
54796;DHT22;40693;43.884;20.340;2023-08-30T03:29:55;486.80;2380.80
54796;DHT22;40693;43.884;20.340;2023-08-30T03:32:21;486.80;2380.80
54796;DHT22;40693;43.884;20.340;2023-08-30T03:34:47;486.80;2380.80
54796;DHT22;40693;43.884;20.340;2023-08-30T03:37:16;486.80;2380.80
54796;DHT22;40693;43.884;20.340;2023-08-30T03:39:42;486.80;2380.80
54796;DHT22;40693;43.884;20.340;2023-08-30T03:42:08;486.90;2380.80
54796;DHT22;40693;43.884;20.340;2023-08-30T03:44:34;486.90;2380.80
54796;DHT22;40693;43.884;20.340;2023-08-30T03:47:00;486.90;2380.80
54796;DHT22;40693;43.884;20.340;2023-08-30T03:49:26;486.80;2380.80
54796;DHT22;40693;43.884;20.340;2023-08-30T03:51:51;486.80;2380.80
54796;DHT22;40693;43.884;20.340;2023-08-30T03:54:17;486.90;2380.80
54796;DHT22;40693;43.884;20.340;2023-08-30T03:56:44;486.90;2380.80
54796;DHT22;40693;43.884;20.340;2023-08-30T03:59:10;486.80;2380.80
54796;DHT22;40693;43.884;20.340;2023-08-30T04:01:36;486.80;2380.80
54796;DHT22;40693;43.884;20.340;2023-08-30T04:04:01;486.80;2380.80
54796;DHT22;40693;43.884;20.340;2023-08-30T04:06:28;486.80;2380.80
54796;DHT22;40693;43.884;20.340;2023-08-30T04:08:54;486.80;2380.80
54796;DHT22;40693;43.884;20.340;2023-08-30T04:11:20;486.80;2380.80
54796;DHT22;40693;43.884;20.340;2023-08-30T04:13:46;486.80;2380.80
54796;DHT22;40693;43.884;20.340;2023-08-30T04:16:11;486.80;2380.80
54796;DHT22;40693;43.884;20.340;2023-08-30T04:18:37;486.80;2380.80
54796;DHT22;40693;43.884;20.340;2023-08-30T04:21:03;486.80;2380.80
54796;DHT22;40693;43.884;20.340;2023-08-30T04:23:29;486.80;2380.80
54796;DHT22;40693;43.884;20.340;2023-08-30T04:25:55;486.70;2380.80
54796;DHT22;40693;43.884;20.340;2023-08-30T04:28:21;486.70;2380.80
54796;DHT22;40693;43.884;20.340;2023-08-30T04:30:47;486.70;2380.80
54796;DHT22;40693;43.884;20.340;2023-08-30T04:33:13;486.70;2380.80
54796;DHT22;40693;43.884;20.340;2023-08-30T04:35:39;486.60;2380.80
54796;DHT22;40693;43.884;20.340;2023-08-30T04:38:05;486.70;2380.80
54796;DHT22;40693;43.884;20.340;2023-08-30T04:40:31;486.70;2380.80
54796;DHT22;40693;43.884;20.340;2023-08-30T04:43:00;486.80;2380.80
54796;DHT22;40693;43.884;20.340;2023-08-30T04:45:26;486.80;2380.80
54796;DHT22;40693;43.884;20.340;2023-08-30T04:47:51;486.80;2380.80
54796;DHT22;40693;43.884;20.340;2023-08-30T04:50:18;486.60;2380.80
54796;DHT22;40693;43.884;20.340;2023-08-30T04:52:44;486.50;2380.80
54796;DHT22;40693;43.884;20.340;2023-08-30T04:55:09;486.50;2380.80
54796;DHT22;40693;43.884;20.340;2023-08-30T04:57:35;486.40;2380.80
54796;DHT22;40693;43.884;20.340;2023-08-30T05:00:04;461.70;2380.80
54796;DHT22;40693;43.884;20.340;2023-08-30T05:02:31;461.70;2380.80
54796;DHT22;40693;43.884;20.340;2023-08-30T05:04:56;461.70;2380.80
54796;DHT22;40693;43.884;20.340;2023-08-30T05:07:22;461.60;2380.80
54796;DHT22;40693;43.884;20.340;2023-08-30T05:09:48;461.70;2380.80
54796;DHT22;40693;43.884;20.340;2023-08-30T05:12:13;461.70;2380.80
54796;DHT22;40693;43.884;20.340;2023-08-30T05:14:39;461.70;2380.80
54796;DHT22;40693;43.884;20.340;2023-08-30T05:17:06;486.40;2380.80
54796;DHT22;40693;43.884;20.340;2023-08-30T05:19:33;486.40;2380.80
54796;DHT22;40693;43.884;20.340;2023-08-30T05:21:58;486.50;2380.80
54796;DHT22;40693;43.884;20.340;2023-08-30T05:24:24;486.50;2380.80
54796;DHT22;40693;43.884;20.340;2023-08-30T05:26:51;486.50;2380.80
54796;DHT22;40693;43.884;20.340;2023-08-30T05:29:17;486.50;2380.80
54796;DHT22;40693;43.884;20.340;2023-08-30T05:31:43;486.60;2380.80
54796;DHT22;40693;43.884;20.340;2023-08-30T05:34:10;486.60;2380.80
54796;DHT22;40693;43.884;20.340;2023-08-30T05:36:36;486.90;2380.80
54796;DHT22;40693;43.884;20.340;2023-08-30T05:39:02;486.70;2380.80
54796;DHT22;40693;43.884;20.340;2023-08-30T05:41:29;486.50;2380.80
54796;DHT22;40693;43.884;20.340;2023-08-30T05:43:54;486.40;2380.80
54796;DHT22;40693;43.884;20.340;2023-08-30T05:46:20;461.70;2380.80
54796;DHT22;40693;43.884;20.340;2023-08-30T05:48:46;461.60;2380.80
54796;DHT22;40693;43.884;20.340;2023-08-30T05:51:12;461.60;2380.80
54796;DHT22;40693;43.884;20.340;2023-08-30T05:53:37;461.60;2380.80
54796;DHT22;40693;43.884;20.340;2023-08-30T05:56:03;461.60;2380.80
54796;DHT22;40693;43.884;20.340;2023-08-30T05:58:29;461.60;2380.80
54796;DHT22;40693;43.884;20.340;2023-08-30T06:00:56;461.60;2380.80
54796;DHT22;40693;43.884;20.340;2023-08-30T06:03:22;461.40;2380.80
54796;DHT22;40693;43.884;20.340;2023-08-30T06:05:48;486.40;2380.80
54796;DHT22;40693;43.884;20.340;2023-08-30T06:08:14;486.50;2380.80
54796;DHT22;40693;43.884;20.340;2023-08-30T06:10:40;486.50;2380.80
54796;DHT22;40693;43.884;20.340;2023-08-30T06:13:06;486.50;2380.80
54796;DHT22;40693;43.884;20.340;2023-08-30T06:15:32;486.60;2380.80
54796;DHT22;40693;43.884;20.340;2023-08-30T06:17:58;486.70;2380.80
54796;DHT22;40693;43.884;20.340;2023-08-30T06:20:24;486.70;2380.80
54796;DHT22;40693;43.884;20.340;2023-08-30T06:22:50;486.60;2380.80
54796;DHT22;40693;43.884;20.340;2023-08-30T06:25:16;486.60;2380.80
54796;DHT22;40693;43.884;20.340;2023-08-30T06:27:54;486.60;2380.80
54796;DHT22;40693;43.884;20.340;2023-08-30T06:30:20;486.60;2380.80
54796;DHT22;40693;43.884;20.340;2023-08-30T06:32:45;486.60;2380.80
54796;DHT22;40693;43.884;20.340;2023-08-30T06:35:11;486.70;2380.80
54796;DHT22;40693;43.884;20.340;2023-08-30T06:37:37;486.80;2380.80
54796;DHT22;40693;43.884;20.340;2023-08-30T06:40:03;486.80;2380.80
54796;DHT22;40693;43.884;20.340;2023-08-30T06:42:29;486.90;2380.80
54796;DHT22;40693;43.884;20.340;2023-08-30T06:44:56;487.00;2380.80
54796;DHT22;40693;43.884;20.340;2023-08-30T06:47:22;487.20;2380.80
54796;DHT22;40693;43.884;20.340;2023-08-30T06:49:47;487.30;2380.80
54796;DHT22;40693;43.884;20.340;2023-08-30T06:52:13;512.00;2380.80
54796;DHT22;40693;43.884;20.340;2023-08-30T06:54:39;512.10;2380.80
54796;DHT22;40693;43.884;20.340;2023-08-30T06:57:04;512.20;2380.80
54796;DHT22;40693;43.884;20.340;2023-08-30T06:59:32;512.40;2380.80
54796;DHT22;40693;43.884;20.340;2023-08-30T07:01:59;512.50;2380.80
54796;DHT22;40693;43.884;20.340;2023-08-30T07:04:24;512.70;2380.80
54796;DHT22;40693;43.884;20.340;2023-08-30T07:06:51;512.90;2380.80
54796;DHT22;40693;43.884;20.340;2023-08-30T07:09:17;537.70;2406.40
54796;DHT22;40693;43.884;20.340;2023-08-30T07:11:43;537.90;2406.40
54796;DHT22;40693;43.884;20.340;2023-08-30T07:14:10;538.00;2406.40
54796;DHT22;40693;43.884;20.340;2023-08-30T07:16:36;538.20;2406.40
54796;DHT22;40693;43.884;20.340;2023-08-30T07:19:02;538.30;2406.40
54796;DHT22;40693;43.884;20.340;2023-08-30T07:21:28;538.50;2406.40
54796;DHT22;40693;43.884;20.340;2023-08-30T07:23:53;563.20;2432.00
54796;DHT22;40693;43.884;20.340;2023-08-30T07:26:19;563.40;2432.00
54796;DHT22;40693;43.884;20.340;2023-08-30T07:28:45;563.40;2432.00
54796;DHT22;40693;43.884;20.340;2023-08-30T07:31:11;563.50;2432.00
54796;DHT22;40693;43.884;20.340;2023-08-30T07:33:40;563.60;2432.00
54796;DHT22;40693;43.884;20.340;2023-08-30T07:36:07;563.80;2432.00
54796;DHT22;40693;43.884;20.340;2023-08-30T07:38:33;564.00;2432.00
54796;DHT22;40693;43.884;20.340;2023-08-30T07:41:00;564.10;2432.00
54796;DHT22;40693;43.884;20.340;2023-08-30T07:43:26;588.90;2432.00
54796;DHT22;40693;43.884;20.340;2023-08-30T07:45:52;589.00;2432.00
54796;DHT22;40693;43.884;20.340;2023-08-30T07:48:17;589.10;2432.00
54796;DHT22;40693;43.884;20.340;2023-08-30T07:50:43;589.10;2432.00
54796;DHT22;40693;43.884;20.340;2023-08-30T07:53:09;589.20;2432.00
54796;DHT22;40693;43.884;20.340;2023-08-30T07:55:36;589.30;2432.00
54796;DHT22;40693;43.884;20.340;2023-08-30T07:58:02;589.50;2432.00
54796;DHT22;40693;43.884;20.340;2023-08-30T08:00:29;589.60;2432.00
54796;DHT22;40693;43.884;20.340;2023-08-30T08:02:55;614.40;2432.00
54796;DHT22;40693;43.884;20.340;2023-08-30T08:05:20;614.40;2432.00
54796;DHT22;40693;43.884;20.340;2023-08-30T08:07:51;614.50;2432.00
54796;DHT22;40693;43.884;20.340;2023-08-30T08:10:17;614.70;2432.00
54796;DHT22;40693;43.884;20.340;2023-08-30T08:12:42;614.80;2432.00
54796;DHT22;40693;43.884;20.340;2023-08-30T08:15:08;614.90;2432.00
54796;DHT22;40693;43.884;20.340;2023-08-30T08:17:35;615.00;2432.00
54796;DHT22;40693;43.884;20.340;2023-08-30T08:20:00;614.90;2432.00
54796;DHT22;40693;43.884;20.340;2023-08-30T08:22:26;615.00;2432.00
54796;DHT22;40693;43.884;20.340;2023-08-30T08:24:53;615.10;2432.00
54796;DHT22;40693;43.884;20.340;2023-08-30T08:27:21;615.20;2432.00
54796;DHT22;40693;43.884;20.340;2023-08-30T08:29:47;615.30;2432.00
54796;DHT22;40693;43.884;20.340;2023-08-30T08:32:13;640.00;2432.00
54796;DHT22;40693;43.884;20.340;2023-08-30T08:34:38;640.00;2432.00
54796;DHT22;40693;43.884;20.340;2023-08-30T08:37:04;640.10;2432.00
54796;DHT22;40693;43.884;20.340;2023-08-30T08:39:30;640.20;2432.00
54796;DHT22;40693;43.884;20.340;2023-08-30T08:41:58;640.20;2355.20
54796;DHT22;40693;43.884;20.340;2023-08-30T08:44:26;640.30;2329.60
54796;DHT22;40693;43.884;20.340;2023-08-30T08:46:56;640.30;2252.80
54796;DHT22;40693;43.884;20.340;2023-08-30T08:49:23;640.50;2304.00
54796;DHT22;40693;43.884;20.340;2023-08-30T08:51:53;640.60;2329.60
54796;DHT22;40693;43.884;20.340;2023-08-30T08:54:20;640.70;2355.20
54796;DHT22;40693;43.884;20.340;2023-08-30T08:56:46;640.90;2329.60
54796;DHT22;40693;43.884;20.340;2023-08-30T08:59:12;665.70;2278.40
54796;DHT22;40693;43.884;20.340;2023-08-30T09:01:39;665.90;2227.20
54796;DHT22;40693;43.884;20.340;2023-08-30T09:04:09;666.00;2252.80
54796;DHT22;40693;43.884;20.340;2023-08-30T09:06:35;666.00;2124.80
54796;DHT22;40693;43.884;20.340;2023-08-30T09:09:03;666.20;2124.80
54796;DHT22;40693;43.884;20.340;2023-08-30T09:11:32;666.40;2150.40
54796;DHT22;40693;43.884;20.340;2023-08-30T09:13:58;691.20;2099.20
54796;DHT22;40693;43.884;20.340;2023-08-30T09:16:24;691.40;2073.60
54796;DHT22;40693;43.884;20.340;2023-08-30T09:19:03;691.30;1996.80
54796;DHT22;40693;43.884;20.340;2023-08-30T09:21:29;691.40;1945.60
54796;DHT22;40693;43.884;20.340;2023-08-30T09:24:05;691.40;1945.60
54796;DHT22;40693;43.884;20.340;2023-08-30T09:26:32;691.40;1945.60
54796;DHT22;40693;43.884;20.340;2023-08-30T09:29:05;691.50;1920.00
54796;DHT22;40693;43.884;20.340;2023-08-30T09:31:38;691.60;1945.60
54796;DHT22;40693;43.884;20.340;2023-08-30T09:34:06;691.80;1971.20
54796;DHT22;40693;43.884;20.340;2023-08-30T09:36:36;691.90;1920.00
54796;DHT22;40693;43.884;20.340;2023-08-30T09:39:09;716.80;1894.40
54796;DHT22;40693;43.884;20.340;2023-08-30T09:41:46;716.80;1894.40
54796;DHT22;40693;43.884;20.340;2023-08-30T09:44:14;716.80;1945.60
54796;DHT22;40693;43.884;20.340;2023-08-30T09:46:41;717.00;1945.60
54796;DHT22;40693;43.884;20.340;2023-08-30T09:49:08;717.20;1894.40
54796;DHT22;40693;43.884;20.340;2023-08-30T09:51:35;717.30;1868.80
54796;DHT22;40693;43.884;20.340;2023-08-30T09:54:04;717.50;1894.40
54796;DHT22;40693;43.884;20.340;2023-08-30T09:56:32;717.60;1843.20
54796;DHT22;40693;43.884;20.340;2023-08-30T09:58:59;742.40;1971.20
54796;DHT22;40693;43.884;20.340;2023-08-30T10:01:27;742.50;1868.80
54796;DHT22;40693;43.884;20.340;2023-08-30T10:03:55;742.50;1817.60
54796;DHT22;40693;43.884;20.340;2023-08-30T10:06:24;742.80;1868.80
54796;DHT22;40693;43.884;20.340;2023-08-30T10:08:52;743.00;1792.00
54796;DHT22;40693;43.884;20.340;2023-08-30T10:11:19;743.00;1792.00
54796;DHT22;40693;43.884;20.340;2023-08-30T10:13:47;743.20;1740.80
54796;DHT22;40693;43.884;20.340;2023-08-30T10:16:18;743.30;1689.60
54796;DHT22;40693;43.884;20.340;2023-08-30T10:18:50;743.30;1689.60
54796;DHT22;40693;43.884;20.340;2023-08-30T10:21:18;768.00;1740.80
54796;DHT22;40693;43.884;20.340;2023-08-30T10:23:44;768.00;1689.60
54796;DHT22;40693;43.884;20.340;2023-08-30T10:26:12;768.10;1689.60
54796;DHT22;40693;43.884;20.340;2023-08-30T10:28:38;768.20;1689.60
54796;DHT22;40693;43.884;20.340;2023-08-30T10:31:05;768.20;1689.60
54796;DHT22;40693;43.884;20.340;2023-08-30T10:33:31;768.10;1689.60
54796;DHT22;40693;43.884;20.340;2023-08-30T10:36:05;768.00;1689.60
54796;DHT22;40693;43.884;20.340;2023-08-30T10:38:32;743.20;1689.60
54796;DHT22;40693;43.884;20.340;2023-08-30T10:41:08;742.90;1715.20
54796;DHT22;40693;43.884;20.340;2023-08-30T10:43:35;742.80;1715.20
54796;DHT22;40693;43.884;20.340;2023-08-30T10:46:04;742.60;1740.80
54796;DHT22;40693;43.884;20.340;2023-08-30T10:48:39;742.40;1766.40
54796;DHT22;40693;43.884;20.340;2023-08-30T10:51:19;717.60;1740.80
54796;DHT22;40693;43.884;20.340;2023-08-30T10:53:55;717.50;1792.00
54796;DHT22;40693;43.884;20.340;2023-08-30T10:56:27;717.40;1792.00
54796;DHT22;40693;43.884;20.340;2023-08-30T10:58:53;717.60;1817.60
54796;DHT22;40693;43.884;20.340;2023-08-30T11:01:19;717.60;1766.40
54796;DHT22;40693;43.884;20.340;2023-08-30T11:03:45;717.40;1792.00
54796;DHT22;40693;43.884;20.340;2023-08-30T11:06:14;717.40;1792.00
54796;DHT22;40693;43.884;20.340;2023-08-30T11:08:43;717.20;1817.60
54796;DHT22;40693;43.884;20.340;2023-08-30T11:11:10;717.30;1817.60
54796;DHT22;40693;43.884;20.340;2023-08-30T11:13:40;717.00;1843.20
54796;DHT22;40693;43.884;20.340;2023-08-30T11:16:05;717.10;1817.60
54796;DHT22;40693;43.884;20.340;2023-08-30T11:18:36;717.40;1792.00
54796;DHT22;40693;43.884;20.340;2023-08-30T11:21:03;717.50;1792.00
54796;DHT22;40693;43.884;20.340;2023-08-30T11:23:29;717.40;1766.40
54796;DHT22;40693;43.884;20.340;2023-08-30T11:25:55;717.60;1766.40
54796;DHT22;40693;43.884;20.340;2023-08-30T11:28:24;717.70;1766.40
54796;DHT22;40693;43.884;20.340;2023-08-30T11:30:53;742.60;1766.40
54796;DHT22;40693;43.884;20.340;2023-08-30T11:33:19;742.60;1740.80
54796;DHT22;40693;43.884;20.340;2023-08-30T11:35:45;742.70;1766.40
54796;DHT22;40693;43.884;20.340;2023-08-30T11:38:13;742.80;1740.80
54796;DHT22;40693;43.884;20.340;2023-08-30T11:40:39;717.50;1664.00
54796;DHT22;40693;43.884;20.340;2023-08-30T11:43:06;742.60;1689.60
54796;DHT22;40693;43.884;20.340;2023-08-30T11:45:32;742.70;1664.00
54796;DHT22;40693;43.884;20.340;2023-08-30T11:48:01;742.70;1689.60
54796;DHT22;40693;43.884;20.340;2023-08-30T11:50:28;742.80;1664.00
54796;DHT22;40693;43.884;20.340;2023-08-30T11:52:55;742.80;1715.20
54796;DHT22;40693;43.884;20.340;2023-08-30T11:55:22;742.80;1664.00
54796;DHT22;40693;43.884;20.340;2023-08-30T11:57:51;742.80;1664.00
54796;DHT22;40693;43.884;20.340;2023-08-30T12:00:20;742.80;1664.00
54796;DHT22;40693;43.884;20.340;2023-08-30T12:02:46;742.80;1664.00
54796;DHT22;40693;43.884;20.340;2023-08-30T12:05:15;742.80;1715.20
54796;DHT22;40693;43.884;20.340;2023-08-30T12:07:42;742.90;1689.60
54796;DHT22;40693;43.884;20.340;2023-08-30T12:10:09;742.90;1689.60
54796;DHT22;40693;43.884;20.340;2023-08-30T12:12:36;743.00;1689.60
54796;DHT22;40693;43.884;20.340;2023-08-30T12:15:09;743.00;1664.00
54796;DHT22;40693;43.884;20.340;2023-08-30T12:17:36;743.10;1664.00
54796;DHT22;40693;43.884;20.340;2023-08-30T12:20:02;743.10;1664.00
54796;DHT22;40693;43.884;20.340;2023-08-30T12:22:41;743.10;1638.40
54796;DHT22;40693;43.884;20.340;2023-08-30T12:25:20;743.10;1638.40
54796;DHT22;40693;43.884;20.340;2023-08-30T12:27:46;743.10;1664.00
54796;DHT22;40693;43.884;20.340;2023-08-30T12:30:14;742.90;1689.60
54796;DHT22;40693;43.884;20.340;2023-08-30T12:32:40;743.10;1689.60
54796;DHT22;40693;43.884;20.340;2023-08-30T12:35:06;743.30;1664.00
54796;DHT22;40693;43.884;20.340;2023-08-30T12:37:32;768.10;1612.80
54796;DHT22;40693;43.884;20.340;2023-08-30T12:39:57;768.10;1612.80
54796;DHT22;40693;43.884;20.340;2023-08-30T12:42:23;768.20;1612.80
54796;DHT22;40693;43.884;20.340;2023-08-30T12:44:49;768.30;1587.20
54796;DHT22;40693;43.884;20.340;2023-08-30T12:47:14;768.40;1561.60
54796;DHT22;40693;43.884;20.340;2023-08-30T12:49:40;768.70;1510.40
54796;DHT22;40693;43.884;20.340;2023-08-30T12:52:06;768.90;1510.40
54796;DHT22;40693;43.884;20.340;2023-08-30T12:54:32;793.70;1510.40
54796;DHT22;40693;43.884;20.340;2023-08-30T12:56:58;793.90;1484.80
54796;DHT22;40693;43.884;20.340;2023-08-30T12:59:23;794.20;1510.40
54796;DHT22;40693;43.884;20.340;2023-08-30T13:01:49;794.40;1484.80
54796;DHT22;40693;43.884;20.340;2023-08-30T13:04:15;794.30;1433.60
54796;DHT22;40693;43.884;20.340;2023-08-30T13:06:41;794.20;1433.60
54796;DHT22;40693;43.884;20.340;2023-08-30T13:09:06;794.20;1459.20
54796;DHT22;40693;43.884;20.340;2023-08-30T13:11:32;794.20;1433.60
54796;DHT22;40693;43.884;20.340;2023-08-30T13:13:58;794.20;1459.20
54796;DHT22;40693;43.884;20.340;2023-08-30T13:16:24;794.00;1484.80
54796;DHT22;40693;43.884;20.340;2023-08-30T13:18:50;793.90;1484.80
54796;DHT22;40693;43.884;20.340;2023-08-30T13:21:16;793.90;1510.40
54796;DHT22;40693;43.884;20.340;2023-08-30T13:23:41;794.00;1510.40
54796;DHT22;40693;43.884;20.340;2023-08-30T13:26:07;794.10;1459.20
54796;DHT22;40693;43.884;20.340;2023-08-30T13:28:33;794.30;1510.40
54796;DHT22;40693;43.884;20.340;2023-08-30T13:30:59;794.40;1459.20
54796;DHT22;40693;43.884;20.340;2023-08-30T13:33:26;794.50;1433.60
54796;DHT22;40693;43.884;20.340;2023-08-30T13:35:52;819.20;1433.60
54796;DHT22;40693;43.884;20.340;2023-08-30T13:38:18;819.20;1459.20
54796;DHT22;40693;43.884;20.340;2023-08-30T13:40:44;819.30;1459.20
54796;DHT22;40693;43.884;20.340;2023-08-30T13:43:10;819.60;1459.20
54796;DHT22;40693;43.884;20.340;2023-08-30T13:45:36;819.40;1408.00
54796;DHT22;40693;43.884;20.340;2023-08-30T13:48:02;819.40;1408.00
54796;DHT22;40693;43.884;20.340;2023-08-30T13:50:27;819.50;1382.40
54796;DHT22;40693;43.884;20.340;2023-08-30T13:52:59;819.70;1408.00
54796;DHT22;40693;43.884;20.340;2023-08-30T13:55:24;819.90;1382.40
54796;DHT22;40693;43.884;20.340;2023-08-30T13:57:50;820.00;1382.40
54796;DHT22;40693;43.884;20.340;2023-08-30T14:00:17;819.80;1356.80
54796;DHT22;40693;43.884;20.340;2023-08-30T14:02:42;819.30;1382.40
54796;DHT22;40693;43.884;20.340;2023-08-30T14:05:08;819.70;1382.40
54796;DHT22;40693;43.884;20.340;2023-08-30T14:07:34;819.80;1382.40
54796;DHT22;40693;43.884;20.340;2023-08-30T14:10:00;819.80;1408.00
54796;DHT22;40693;43.884;20.340;2023-08-30T14:12:26;820.00;1356.80
54796;DHT22;40693;43.884;20.340;2023-08-30T14:14:51;820.00;1382.40
54796;DHT22;40693;43.884;20.340;2023-08-30T14:17:18;820.10;1408.00
54796;DHT22;40693;43.884;20.340;2023-08-30T14:19:44;820.10;1382.40
54796;DHT22;40693;43.884;20.340;2023-08-30T14:22:09;820.10;1331.20
54796;DHT22;40693;43.884;20.340;2023-08-30T14:24:35;820.10;1305.60
54796;DHT22;40693;43.884;20.340;2023-08-30T14:27:01;820.10;1280.00
54796;DHT22;40693;43.884;20.340;2023-08-30T14:29:28;820.00;1254.40
54796;DHT22;40693;43.884;20.340;2023-08-30T14:31:54;820.00;1254.40
54796;DHT22;40693;43.884;20.340;2023-08-30T14:34:22;819.90;1228.80
54796;DHT22;40693;43.884;20.340;2023-08-30T14:36:48;819.80;1254.40
54796;DHT22;40693;43.884;20.340;2023-08-30T14:39:14;819.80;1254.40
54796;DHT22;40693;43.884;20.340;2023-08-30T14:41:40;819.80;1254.40